Time;durP1;ratioP1;P1;durP2;ratioP2;P2;SDS_P1;SDS_P2;PMS_P1;PMS_P2;Temp;Humidity;BMP_temperature;BMP_pressure;BME280_temperature;BME280_humidity;BME280_pressure;Samples;Min_cycle;Max_cycle;Signal;HPM_P1;HPM_P2
2023/07/03 00:02:09;;;;;;;18.58;16.58;;;20.60;56.70;;;;;;5036902;28;20182;-93
2023/07/03 00:04:37;;;;;;;17.35;15.60;;;20.60;57.90;;;;;;5034119;28;20209;-89
2023/07/03 00:07:06;;;;;;;18.05;16.35;;;20.50;58.20;;;;;;5033876;28;20185;-89
2023/07/03 00:09:32;;;;;;;18.58;16.20;;;20.60;57.40;;;;;;5034762;28;20177;-91
2023/07/03 00:11:58;;;;;;;17.42;15.63;;;20.60;56.70;;;;;;5034948;28;20362;-88
2023/07/03 00:14:24;;;;;;;17.25;15.63;;;20.70;56.80;;;;;;5033142;28;20185;-90
2023/07/03 00:16:50;;;;;;;17.92;16.23;;;20.70;56.40;;;;;;5031758;28;20265;-91
2023/07/03 00:19:15;;;;;;;19.92;17.23;;;20.70;56.30;;;;;;5033919;28;20189;-91
2023/07/03 00:21:44;;;;;;;17.80;16.05;;;20.70;56.20;;;;;;5032571;28;20178;-90
2023/07/03 00:24:13;;;;;;;18.55;16.70;;;20.70;56.50;;;;;;5033591;28;20177;-91
2023/07/03 00:26:39;;;;;;;18.77;16.85;;;20.70;56.00;;;;;;5033013;28;20178;-93
2023/07/03 00:29:05;;;;;;;18.70;16.75;;;20.70;56.50;;;;;;5032990;28;20181;-91
2023/07/03 00:31:31;;;;;;;18.13;16.35;;;20.70;56.70;;;;;;5033488;28;20177;-93
2023/07/03 00:33:58;;;;;;;18.52;16.58;;;20.70;56.80;;;;;;5032803;28;20181;-91
2023/07/03 00:36:24;;;;;;;16.65;15.13;;;20.60;57.10;;;;;;5033057;28;20205;-91
2023/07/03 00:38:50;;;;;;;18.02;16.17;;;20.50;57.40;;;;;;5032979;28;20221;-91
2023/07/03 00:41:17;;;;;;;18.35;16.42;;;20.50;57.60;;;;;;5033479;28;20189;-89
2023/07/03 00:43:43;;;;;;;19.42;16.27;;;20.50;57.30;;;;;;5033313;28;20169;-90
2023/07/03 00:46:10;;;;;;;18.10;16.30;;;20.50;57.00;;;;;;5033043;28;20182;-89
2023/07/03 00:48:40;;;;;;;18.48;16.58;;;20.40;57.50;;;;;;5032722;28;20232;-89
2023/07/03 00:51:08;;;;;;;19.75;15.55;;;20.40;57.70;;;;;;5033052;28;20186;-91
2023/07/03 00:53:34;;;;;;;17.42;15.68;;;20.40;57.00;;;;;;5033175;28;20181;-91
2023/07/03 00:56:02;;;;;;;19.35;16.88;;;20.40;56.80;;;;;;5032642;28;20276;-92
2023/07/03 00:58:28;;;;;;;19.85;16.77;;;20.50;57.00;;;;;;5032351;28;20216;-90
2023/07/03 01:01:17;;;;;;;18.42;16.55;;;20.50;56.40;;;;;;5032769;28;20190;-90
2023/07/03 01:03:57;;;;;;;18.13;16.23;;;20.60;56.10;;;;;;5018776;28;20196;-91
2023/07/03 01:06:28;;;;;;;21.10;16.92;;;20.60;57.90;;;;;;5029048;28;20188;-91
2023/07/03 01:08:58;;;;;;;17.80;16.00;;;20.60;57.20;;;;;;5015770;28;20225;-91
2023/07/03 01:11:25;;;;;;;18.13;16.13;;;20.50;57.40;;;;;;5013193;28;20182;-91
2023/07/03 01:13:54;;;;;;;17.90;16.00;;;20.40;57.20;;;;;;5012562;28;20186;-91
2023/07/03 01:16:20;;;;;;;18.83;16.27;;;20.30;57.90;;;;;;5013735;28;20247;-89
2023/07/03 01:18:48;;;;;;;17.00;15.30;;;20.10;58.50;;;;;;5012812;28;20198;-91
2023/07/03 01:21:26;;;;;;;19.30;15.85;;;20.10;58.10;;;;;;5012177;28;20186;-90
2023/07/03 01:24:04;;;;;;;18.35;16.08;;;20.10;58.00;;;;;;5013036;28;20194;-92
2023/07/03 01:26:31;;;;;;;17.80;15.65;;;20.10;58.30;;;;;;5012601;28;20169;-91
2023/07/03 01:29:00;;;;;;;17.98;15.00;;;20.00;58.70;;;;;;5012894;28;20203;-91
2023/07/03 01:31:30;;;;;;;18.65;15.13;;;20.00;58.90;;;;;;5011860;28;20246;-88
2023/07/03 01:33:59;;;;;;;16.67;15.05;;;19.90;59.30;;;;;;5010817;28;20186;-90
2023/07/03 01:36:27;;;;;;;19.58;15.52;;;19.70;59.80;;;;;;5011844;28;20207;-90
2023/07/03 01:38:54;;;;;;;17.10;15.40;;;19.80;59.90;;;;;;5011782;28;20470;-89
2023/07/03 01:41:20;;;;;;;20.52;14.27;;;19.80;60.20;;;;;;5012560;28;20244;-89
2023/07/03 01:43:46;;;;;;;17.52;15.63;;;19.80;60.30;;;;;;5011547;28;20184;-90
2023/07/03 01:46:15;;;;;;;16.58;14.90;;;19.90;60.50;;;;;;5010647;28;20704;-89
2023/07/03 01:48:41;;;;;;;19.40;15.90;;;19.90;60.10;;;;;;5012403;28;20198;-89
2023/07/03 01:51:11;;;;;;;20.58;15.43;;;19.90;60.50;;;;;;5012880;28;20660;-90
2023/07/03 01:54:11;;;;;;;17.42;15.63;;;19.80;60.60;;;;;;5013160;28;20213;-91
2023/07/03 01:56:39;;;;;;;19.58;15.13;;;19.80;60.50;;;;;;4998339;28;20209;-91
2023/07/03 01:59:13;;;;;;;16.80;14.52;;;19.80;60.70;;;;;;5017605;28;20205;-90
2023/07/03 02:01:41;;;;;;;20.15;15.15;;;20.00;60.00;;;;;;5033449;28;20186;-89
2023/07/03 02:04:17;;;;;;;17.90;14.60;;;20.00;60.00;;;;;;5037625;28;20170;-95
2023/07/03 02:06:47;;;;;;;17.65;15.20;;;20.00;60.60;;;;;;5038639;28;20166;-94
2023/07/03 02:09:13;;;;;;;18.88;15.38;;;20.00;60.40;;;;;;5038803;28;20185;-93
2023/07/03 02:11:39;;;;;;;17.80;14.65;;;20.00;59.70;;;;;;5039313;28;20183;-94
2023/07/03 02:14:06;;;;;;;19.60;15.05;;;20.10;59.50;;;;;;5038846;28;20243;-94
2023/07/03 02:16:32;;;;;;;17.75;15.25;;;20.00;60.00;;;;;;5038559;28;20269;-92
2023/07/03 02:19:01;;;;;;;16.35;14.65;;;19.90;60.10;;;;;;5039273;28;20213;-93
2023/07/03 02:21:30;;;;;;;17.98;15.05;;;20.00;59.70;;;;;;5034565;28;20189;-90
2023/07/03 02:23:55;;;;;;;18.13;14.23;;;20.00;60.00;;;;;;5031025;28;20188;-91
2023/07/03 02:26:21;;;;;;;17.73;14.95;;;20.00;59.30;;;;;;5032154;28;20183;-91
2023/07/03 02:28:46;;;;;;;16.33;14.45;;;20.00;60.20;;;;;;5032004;28;20821;-90
2023/07/03 02:31:12;;;;;;;20.10;15.50;;;20.00;59.30;;;;;;5031554;28;20181;-90
2023/07/03 02:33:38;;;;;;;18.90;15.65;;;20.10;59.00;;;;;;5030454;28;20200;-91
2023/07/03 02:36:04;;;;;;;17.65;14.80;;;20.00;58.90;;;;;;5031057;28;20206;-91
2023/07/03 02:38:30;;;;;;;17.02;14.40;;;20.00;59.20;;;;;;5030273;28;20200;-90
2023/07/03 02:40:56;;;;;;;18.40;16.30;;;20.00;59.50;;;;;;5030295;28;20214;-91
2023/07/03 02:43:22;;;;;;;16.63;15.07;;;20.20;59.50;;;;;;5031123;28;20189;-89
2023/07/03 02:45:48;;;;;;;19.10;16.38;;;20.40;59.50;;;;;;5030743;28;20188;-90
2023/07/03 02:48:15;;;;;;;17.27;15.05;;;20.40;58.50;;;;;;5031099;28;20244;-93
2023/07/03 02:50:41;;;;;;;16.13;14.63;;;20.50;59.30;;;;;;5031184;28;20253;-90
2023/07/03 02:53:10;;;;;;;17.30;15.60;;;20.40;59.30;;;;;;5031020;28;20182;-92
2023/07/03 02:55:35;;;;;;;17.83;15.05;;;20.50;58.60;;;;;;5034674;28;20182;-90
2023/07/03 02:58:01;;;;;;;16.30;14.60;;;20.50;59.50;;;;;;5030764;28;20260;-92
2023/07/03 03:00:28;;;;;;;17.15;15.38;;;20.50;59.50;;;;;;5021050;28;20183;-91
2023/07/03 03:02:54;;;;;;;18.52;16.30;;;20.50;59.00;;;;;;5011160;28;20182;-90
2023/07/03 03:05:20;;;;;;;16.67;14.98;;;20.40;59.40;;;;;;5012496;28;20225;-91
2023/07/03 03:07:45;;;;;;;18.98;15.75;;;20.20;59.70;;;;;;5013518;28;20185;-90
2023/07/03 03:10:11;;;;;;;19.00;15.45;;;20.10;60.20;;;;;;5031574;28;20184;-90
2023/07/03 03:12:37;;;;;;;19.45;14.98;;;19.90;60.50;;;;;;5031944;28;20176;-91
2023/07/03 03:15:03;;;;;;;15.93;14.32;;;19.80;60.80;;;;;;5030904;28;20174;-91
2023/07/03 03:17:29;;;;;;;19.17;15.23;;;19.70;61.70;;;;;;5029866;28;20217;-92
2023/07/03 03:19:54;;;;;;;18.42;14.38;;;19.70;62.00;;;;;;5030172;28;20178;-89
2023/07/03 03:22:20;;;;;;;16.50;14.85;;;19.70;61.70;;;;;;5029896;28;20176;-90
2023/07/03 03:24:46;;;;;;;18.92;14.70;;;19.70;62.50;;;;;;5031527;28;20249;-90
2023/07/03 03:27:12;;;;;;;16.42;14.73;;;19.70;61.60;;;;;;5029191;28;20745;-90
2023/07/03 03:29:40;;;;;;;16.88;15.07;;;19.70;61.20;;;;;;5029956;28;20181;-89
2023/07/03 03:32:07;;;;;;;16.35;14.65;;;19.80;61.30;;;;;;5029579;28;20237;-89
2023/07/03 03:34:34;;;;;;;20.95;15.25;;;19.90;61.30;;;;;;5031038;28;20172;-88
2023/07/03 03:37:01;;;;;;;16.60;14.57;;;19.90;61.60;;;;;;5029846;28;20224;-89
2023/07/03 03:39:26;;;;;;;19.50;16.00;;;19.80;62.00;;;;;;5012594;28;20238;-91
2023/07/03 03:41:52;;;;;;;18.60;14.93;;;19.80;62.20;;;;;;5009389;28;20176;-91
2023/07/03 03:44:18;;;;;;;17.48;14.90;;;19.70;62.80;;;;;;5011541;28;20201;-90
2023/07/03 03:46:43;;;;;;;17.63;15.77;;;19.70;62.80;;;;;;5030064;28;20178;-91
2023/07/03 03:49:10;;;;;;;20.83;15.82;;;19.80;63.20;;;;;;5029208;28;20212;-90
2023/07/03 03:51:36;;;;;;;17.17;14.82;;;19.90;63.50;;;;;;5031132;28;20177;-90
2023/07/03 03:54:03;;;;;;;17.67;14.63;;;19.90;63.20;;;;;;5027732;28;20188;-89
2023/07/03 03:56:28;;;;;;;19.73;14.95;;;19.90;63.00;;;;;;5021846;28;20744;-90
2023/07/03 03:58:54;;;;;;;18.77;15.63;;;19.70;64.20;;;;;;5028870;28;20209;-92
2023/07/03 04:01:20;;;;;;;17.02;14.48;;;19.60;64.00;;;;;;5028823;28;20182;-91
2023/07/03 04:03:45;;;;;;;20.33;15.52;;;19.50;64.60;;;;;;5027753;28;20182;-89
2023/07/03 04:06:11;;;;;;;20.17;14.18;;;19.40;65.10;;;;;;5025719;28;20182;-89
2023/07/03 04:08:36;;;;;;;21.48;14.93;;;19.50;65.10;;;;;;5027393;28;20202;-91
2023/07/03 04:11:03;;;;;;;16.48;14.70;;;19.50;64.20;;;;;;5025485;28;20190;-90
2023/07/03 04:13:28;;;;;;;17.65;14.43;;;19.50;64.30;;;;;;5025475;28;20241;-90
2023/07/03 04:15:54;;;;;;;20.00;14.48;;;19.50;64.30;;;;;;5025706;28;20209;-91
2023/07/03 04:18:20;;;;;;;16.92;14.02;;;19.40;64.60;;;;;;5026123;28;20301;-89
2023/07/03 04:20:46;;;;;;;16.58;14.00;;;19.40;63.90;;;;;;5023259;28;20178;-93
2023/07/03 04:23:12;;;;;;;17.67;14.27;;;19.60;63.60;;;;;;5024221;28;20181;-91
2023/07/03 04:25:38;;;;;;;17.52;13.95;;;19.50;63.60;;;;;;5023972;28;20242;-90
2023/07/03 04:28:04;;;;;;;16.70;13.93;;;19.70;63.00;;;;;;5025611;28;20206;-90
2023/07/03 04:30:29;;;;;;;16.42;14.32;;;19.70;62.00;;;;;;5028865;28;20301;-89
2023/07/03 04:32:55;;;;;;;18.67;13.52;;;19.70;62.20;;;;;;5030048;28;20706;-89
2023/07/03 04:35:22;;;;;;;16.65;14.85;;;19.70;60.90;;;;;;5028284;28;20679;-91
2023/07/03 04:37:49;;;;;;;22.33;13.10;;;19.70;61.00;;;;;;5023121;28;20202;-87
2023/07/03 04:40:14;;;;;;;16.88;13.48;;;19.70;61.50;;;;;;5008130;28;20228;-88
2023/07/03 04:42:40;;;;;;;17.98;14.10;;;19.80;61.00;;;;;;5005739;28;20246;-87
2023/07/03 04:45:07;;;;;;;15.50;12.77;;;19.70;61.50;;;;;;5008075;28;20182;-90
2023/07/03 04:47:33;;;;;;;16.70;13.70;;;19.60;60.90;;;;;;5026553;28;20198;-88
2023/07/03 04:49:59;;;;;;;15.05;13.02;;;19.70;60.90;;;;;;5028238;28;20678;-89
2023/07/03 04:52:27;;;;;;;16.10;12.95;;;19.70;60.40;;;;;;5017711;28;20178;-86
2023/07/03 04:54:54;;;;;;;16.98;13.52;;;19.70;60.90;;;;;;5011817;28;20177;-91
2023/07/03 04:57:20;;;;;;;16.13;12.70;;;19.70;60.50;;;;;;5024889;28;20210;-90
2023/07/03 04:59:46;;;;;;;16.80;13.25;;;19.60;60.80;;;;;;5027309;28;20174;-89
2023/07/03 05:02:16;;;;;;;14.93;12.75;;;19.60;61.30;;;;;;5010813;28;20170;-88
2023/07/03 05:04:42;;;;;;;15.55;13.75;;;19.70;60.20;;;;;;5008801;28;20266;-87
2023/07/03 05:07:08;;;;;;;13.60;12.07;;;19.70;59.80;;;;;;5018918;28;20198;-90
2023/07/03 05:09:33;;;;;;;17.75;13.13;;;19.60;59.90;;;;;;5026004;28;20192;-89
2023/07/03 05:11:59;;;;;;;14.43;12.73;;;19.60;59.90;;;;;;5022932;28;20695;-88
2023/07/03 05:14:25;;;;;;;17.88;13.95;;;19.70;60.20;;;;;;5023685;28;20182;-88
2023/07/03 05:16:50;;;;;;;14.65;13.15;;;19.80;60.00;;;;;;5025727;28;20224;-89
2023/07/03 05:19:16;;;;;;;16.83;12.82;;;19.80;60.10;;;;;;5026587;28;20208;-90
2023/07/03 05:21:42;;;;;;;15.48;13.20;;;19.70;60.40;;;;;;5022117;28;20689;-89
2023/07/03 05:24:07;;;;;;;14.63;12.80;;;19.70;61.10;;;;;;5008139;28;20230;-90
2023/07/03 05:26:33;;;;;;;17.58;13.25;;;19.90;59.90;;;;;;5006670;28;20301;-90
2023/07/03 05:28:59;;;;;;;16.58;12.82;;;19.90;59.90;;;;;;5010414;28;20862;-89
2023/07/03 05:31:24;;;;;;;14.43;12.98;;;19.90;60.00;;;;;;5007188;28;20202;-90
2023/07/03 05:33:50;;;;;;;18.15;13.32;;;20.00;59.80;;;;;;5015103;28;20195;-88
2023/07/03 05:36:16;;;;;;;15.18;13.48;;;20.00;59.20;;;;;;5006809;28;20206;-90
2023/07/03 05:38:43;;;;;;;14.95;13.38;;;20.00;59.50;;;;;;5014065;28;20220;-89
2023/07/03 05:41:09;;;;;;;16.35;13.10;;;20.00;60.10;;;;;;5009726;28;20767;-91
2023/07/03 05:43:35;;;;;;;14.15;12.20;;;20.00;60.20;;;;;;5012342;28;20181;-89
2023/07/03 05:46:01;;;;;;;17.65;13.35;;;20.00;59.40;;;;;;5006227;28;20186;-89
2023/07/03 05:48:27;;;;;;;16.27;12.95;;;20.10;59.40;;;;;;5009708;28;20229;-89
2023/07/03 05:50:52;;;;;;;14.05;12.40;;;20.20;59.50;;;;;;5019496;28;20190;-94
2023/07/03 05:53:18;;;;;;;13.18;11.88;;;20.20;59.20;;;;;;5011718;28;20242;-89
2023/07/03 05:55:55;;;;;;;20.30;13.63;;;20.20;58.70;;;;;;5007993;28;20220;-88
2023/07/03 05:58:22;;;;;;;16.15;12.75;;;20.20;59.00;;;;;;5014385;28;20226;-89
2023/07/03 06:00:49;;;;;;;15.38;12.68;;;20.20;58.50;;;;;;5016097;28;20182;-89
2023/07/03 06:03:15;;;;;;;17.17;12.90;;;20.30;57.90;;;;;;5011537;28;20508;-88
2023/07/03 06:05:41;;;;;;;16.35;12.73;;;20.10;58.60;;;;;;5010088;28;20200;-88
2023/07/03 06:08:07;;;;;;;13.45;12.00;;;20.10;58.40;;;;;;5013637;28;20194;-89
2023/07/03 06:10:33;;;;;;;17.77;12.07;;;20.00;57.70;;;;;;5011581;28;20217;-89
2023/07/03 06:12:58;;;;;;;14.95;11.95;;;20.10;57.20;;;;;;5009315;28;20193;-91
2023/07/03 06:15:25;;;;;;;19.75;12.45;;;20.10;56.70;;;;;;5008825;28;20185;-89
2023/07/03 06:17:50;;;;;;;14.45;11.45;;;20.00;57.20;;;;;;5005845;28;20213;-92
2023/07/03 06:20:16;;;;;;;14.85;11.25;;;20.10;57.40;;;;;;5011898;28;20177;-90
2023/07/03 06:22:42;;;;;;;15.20;12.07;;;20.00;57.30;;;;;;5010745;28;20190;-89
2023/07/03 06:25:09;;;;;;;13.70;11.18;;;20.00;56.50;;;;;;5015561;28;20166;-91
2023/07/03 06:27:35;;;;;;;13.32;11.30;;;19.90;57.30;;;;;;5026053;28;20198;-90
2023/07/03 06:30:01;;;;;;;17.33;12.20;;;19.90;57.40;;;;;;5019808;28;20186;-89
2023/07/03 06:32:27;;;;;;;15.23;11.55;;;19.90;57.60;;;;;;5018208;28;20173;-89
2023/07/03 06:35:02;;;;;;;16.15;11.55;;;19.90;57.40;;;;;;5021483;28;20794;-89
2023/07/03 06:37:28;;;;;;;12.77;10.68;;;20.00;57.10;;;;;;4998269;28;20267;-88
2023/07/03 06:39:53;;;;;;;17.23;11.20;;;20.10;57.60;;;;;;5018185;28;20177;-89
2023/07/03 06:42:19;;;;;;;15.55;11.30;;;20.20;56.50;;;;;;5015098;28;20208;-89
2023/07/03 06:44:45;;;;;;;15.77;11.45;;;20.20;56.60;;;;;;5014595;28;20188;-88
2023/07/03 06:47:10;;;;;;;15.93;11.48;;;20.10;56.80;;;;;;5018506;28;20202;-89
2023/07/03 06:49:36;;;;;;;11.90;10.57;;;20.30;56.50;;;;;;5017193;28;20182;-86
2023/07/03 06:52:03;;;;;;;14.23;10.77;;;20.30;57.00;;;;;;5010761;28;20185;-87
2023/07/03 06:54:28;;;;;;;15.63;11.82;;;20.40;56.20;;;;;;4998520;28;20182;-88
2023/07/03 06:56:54;;;;;;;11.63;10.43;;;20.40;54.80;;;;;;4998942;28;20699;-90
2023/07/03 06:59:20;;;;;;;13.95;10.02;;;20.20;55.00;;;;;;4998361;28;20190;-89
2023/07/03 07:01:45;;;;;;;13.07;10.38;;;20.30;54.40;;;;;;4998289;28;20178;-88
2023/07/03 07:04:11;;;;;;;15.82;10.65;;;20.40;54.30;;;;;;4996444;28;20543;-88
2023/07/03 07:06:39;;;;;;;14.10;9.90;;;20.50;54.40;;;;;;4997573;28;20197;-88
2023/07/03 07:09:05;;;;;;;12.02;9.55;;;20.30;54.10;;;;;;4996644;28;20178;-87
2023/07/03 07:11:33;;;;;;;14.50;9.13;;;20.30;53.60;;;;;;4996270;28;20187;-90
2023/07/03 07:14:00;;;;;;;15.25;9.57;;;20.30;54.40;;;;;;4995796;28;20436;-88
2023/07/03 07:16:32;;;;;;;10.23;9.05;;;20.50;54.00;;;;;;4996126;28;20233;-89
2023/07/03 07:19:01;;;;;;;14.90;10.90;;;20.60;53.30;;;;;;4995833;28;20194;-87
2023/07/03 07:21:28;;;;;;;12.13;9.75;;;20.70;53.40;;;;;;4997683;28;20174;-87
2023/07/03 07:23:59;;;;;;;13.27;9.75;;;20.80;53.70;;;;;;4998418;28;20189;-88
2023/07/03 07:26:28;;;;;;;13.90;9.63;;;21.00;54.20;;;;;;4996811;28;20253;-86
2023/07/03 07:28:54;;;;;;;13.23;9.73;;;20.80;53.90;;;;;;4997913;28;20292;-88
2023/07/03 07:31:26;;;;;;;12.38;9.50;;;20.70;52.90;;;;;;4997966;28;20191;-88
2023/07/03 07:33:52;;;;;;;14.13;9.65;;;20.60;53.60;;;;;;4996077;28;20214;-89
2023/07/03 07:36:20;;;;;;;15.18;9.35;;;20.70;54.00;;;;;;4997105;28;20201;-90
2023/07/03 07:38:48;;;;;;;13.38;9.98;;;20.50;55.00;;;;;;5009189;28;20232;-88
2023/07/03 07:41:13;;;;;;;13.25;10.70;;;20.70;54.20;;;;;;5016168;28;20587;-87
2023/07/03 07:43:39;;;;;;;13.70;9.63;;;20.70;53.70;;;;;;4998041;28;20187;-88
2023/07/03 07:46:05;;;;;;;12.00;9.68;;;20.50;54.10;;;;;;4997193;28;20194;-88
2023/07/03 07:48:31;;;;;;;12.40;8.85;;;20.40;54.40;;;;;;4997904;28;20202;-89
2023/07/03 07:50:57;;;;;;;11.65;9.50;;;20.40;54.00;;;;;;4997864;28;20175;-88
2023/07/03 07:53:23;;;;;;;11.52;10.02;;;20.50;55.30;;;;;;4997352;28;20197;-88
2023/07/03 07:55:48;;;;;;;13.73;9.13;;;20.70;54.30;;;;;;4997555;28;20228;-87
2023/07/03 07:58:14;;;;;;;11.90;9.55;;;20.60;54.50;;;;;;4998559;28;20214;-89
2023/07/03 08:00:40;;;;;;;13.57;9.30;;;20.90;52.60;;;;;;5014671;28;20265;-86
2023/07/03 08:03:06;;;;;;;10.90;8.57;;;20.90;52.80;;;;;;5015283;28;20308;-88
2023/07/03 08:05:32;;;;;;;11.43;8.90;;;20.90;54.30;;;;;;5006509;28;20211;-88
2023/07/03 08:07:58;;;;;;;13.77;9.30;;;20.90;52.40;;;;;;5007339;28;20190;-88
2023/07/03 08:10:24;;;;;;;10.50;8.65;;;20.80;53.40;;;;;;5019432;28;20190;-89
2023/07/03 08:12:52;;;;;;;11.00;8.82;;;21.00;52.90;;;;;;5019518;28;20754;-88
2023/07/03 08:15:18;;;;;;;12.48;9.00;;;21.40;52.40;;;;;;5019535;28;20230;-88
2023/07/03 08:17:43;;;;;;;15.40;9.20;;;21.40;50.80;;;;;;5022012;28;20391;-86
2023/07/03 08:20:11;;;;;;;11.57;8.35;;;21.00;51.90;;;;;;5016931;28;20200;-86
2023/07/03 08:22:39;;;;;;;11.23;8.10;;;21.20;51.30;;;;;;5002166;28;20182;-88
2023/07/03 08:25:05;;;;;;;14.50;8.63;;;21.30;50.60;;;;;;5001263;28;20174;-89
2023/07/03 08:27:31;;;;;;;8.88;7.25;;;21.40;49.30;;;;;;5002766;28;20249;-87
2023/07/03 08:29:56;;;;;;;10.90;7.82;;;21.30;50.50;;;;;;5002198;28;20186;-89
2023/07/03 08:32:23;;;;;;;12.35;7.82;;;21.30;50.10;;;;;;5003787;28;20223;-87
2023/07/03 08:34:49;;;;;;;8.00;7.20;;;21.30;50.10;;;;;;5002501;28;20183;-87
2023/07/03 08:37:15;;;;;;;15.10;8.15;;;21.30;49.40;;;;;;5019380;28;20216;-88
2023/07/03 08:39:41;;;;;;;7.70;6.95;;;21.20;50.50;;;;;;5002213;28;20211;-89
2023/07/03 08:42:16;;;;;;;10.20;7.43;;;21.40;49.10;;;;;;5001967;28;20174;-89
2023/07/03 08:44:41;;;;;;;10.23;7.13;;;21.30;49.00;;;;;;5001873;28;20178;-87
2023/07/03 08:47:13;;;;;;;10.25;7.78;;;21.60;47.80;;;;;;5001762;28;20229;-88
2023/07/03 08:49:40;;;;;;;8.60;7.20;;;21.60;48.10;;;;;;5001952;28;20802;-86
2023/07/03 08:52:07;;;;;;;10.60;7.90;;;21.90;47.70;;;;;;5002651;28;20185;-90
2023/07/03 08:54:36;;;;;;;10.32;7.68;;;22.00;47.80;;;;;;5001134;28;20174;-88
2023/07/03 08:57:04;;;;;;;14.23;8.98;;;22.20;47.70;;;;;;5000608;28;20337;-88
2023/07/03 08:59:30;;;;;;;10.88;8.98;;;22.10;47.10;;;;;;5000782;28;20194;-90
2023/07/03 09:02:16;;;;;;;9.73;8.68;;;22.00;47.30;;;;;;4998722;28;20671;-88
2023/07/03 09:05:04;;;;;;;9.63;8.65;;;22.20;49.50;;;;;;4997896;28;20218;-89
2023/07/03 09:07:30;;;;;;;11.95;9.13;;;22.60;46.80;;;;;;5001368;28;20729;-89
2023/07/03 09:10:13;;;;;;;9.90;8.88;;;22.70;47.20;;;;;;5017956;28;20189;-87
2023/07/03 09:12:50;;;;;;;10.60;9.60;;;22.80;47.30;;;;;;5018203;28;20260;-88
2023/07/03 09:15:30;;;;;;;11.07;9.63;;;22.90;45.80;;;;;;5016041;28;20670;-89
2023/07/03 09:17:58;;;;;;;10.13;8.82;;;22.60;45.50;;;;;;5017344;28;20209;-87
2023/07/03 09:20:26;;;;;;;10.70;9.05;;;22.70;46.80;;;;;;5018222;28;20200;-87
2023/07/03 09:23:02;;;;;;;10.18;9.07;;;22.60;48.90;;;;;;5019389;28;20188;-86
2023/07/03 09:25:46;;;;;;;9.18;8.20;;;22.50;46.90;;;;;;5019126;28;20241;-87
2023/07/03 09:28:12;;;;;;;9.13;8.30;;;22.50;48.00;;;;;;5019585;28;20340;-87
2023/07/03 09:30:38;;;;;;;10.18;9.15;;;22.90;47.30;;;;;;5018871;28;20241;-86
2023/07/03 09:33:06;;;;;;;8.82;8.13;;;23.00;45.40;;;;;;5016490;28;20189;-88
2023/07/03 09:35:42;;;;;;;9.57;8.68;;;23.00;44.90;;;;;;5008995;28;20678;-88
2023/07/03 09:38:15;;;;;;;8.75;7.85;;;22.70;45.30;;;;;;5012541;28;20213;-90
2023/07/03 09:40:45;;;;;;;10.90;8.77;;;22.60;45.20;;;;;;4999045;28;20189;-88
2023/07/03 09:43:23;;;;;;;10.05;8.40;;;22.50;46.30;;;;;;4999296;28;20174;-88
2023/07/03 09:45:49;;;;;;;11.90;8.18;;;22.40;46.10;;;;;;5000754;28;20165;-90
2023/07/03 09:48:24;;;;;;;8.82;7.65;;;22.40;46.00;;;;;;5012330;28;20208;-88
2023/07/03 09:50:50;;;;;;;7.43;6.57;;;22.20;47.60;;;;;;5019060;28;20228;-88
2023/07/03 09:53:22;;;;;;;7.72;6.95;;;22.50;47.60;;;;;;5019105;28;20196;-88
2023/07/03 09:55:52;;;;;;;9.43;7.40;;;22.50;46.50;;;;;;5018714;28;20183;-89
2023/07/03 09:58:18;;;;;;;8.35;7.55;;;22.40;46.70;;;;;;5017808;28;20283;-88
2023/07/03 10:00:49;;;;;;;10.13;8.18;;;22.30;46.50;;;;;;5018467;28;20178;-89
2023/07/03 10:03:26;;;;;;;8.40;7.60;;;22.30;46.70;;;;;;5023652;28;20321;-90
2023/07/03 10:05:55;;;;;;;7.70;6.97;;;22.00;48.00;;;;;;5020556;28;20152;-89
2023/07/03 10:08:24;;;;;;;11.38;7.78;;;22.00;48.80;;;;;;5018961;28;20204;-88
2023/07/03 10:10:54;;;;;;;8.52;7.72;;;22.10;48.70;;;;;;5018878;28;20223;-90
2023/07/03 10:13:32;;;;;;;8.05;6.95;;;22.40;47.60;;;;;;5017888;28;20178;-89
2023/07/03 10:15:59;;;;;;;7.85;7.15;;;22.40;48.10;;;;;;5019927;28;20746;-86
2023/07/03 10:18:35;;;;;;;10.90;7.70;;;22.40;47.30;;;;;;5025018;28;20220;-87
2023/07/03 10:21:04;;;;;;;7.70;6.90;;;22.40;47.00;;;;;;5020071;28;20570;-86
2023/07/03 10:23:33;;;;;;;8.65;7.63;;;22.30;48.60;;;;;;5021409;28;20325;-87
2023/07/03 10:26:38;;;;;;;8.52;7.20;;;22.50;48.80;;;;;;5019714;28;20233;-87
2023/07/03 10:29:21;;;;;;;7.50;6.80;;;22.40;48.30;;;;;;5019549;28;20556;-87
2023/07/03 10:31:58;;;;;;;8.70;7.68;;;22.20;48.60;;;;;;5016907;28;20230;-87
2023/07/03 10:34:33;;;;;;;7.25;5.85;;;22.00;48.40;;;;;;5020572;28;20192;-88
2023/07/03 10:37:02;;;;;;;6.72;5.90;;;21.80;49.90;;;;;;5006233;28;20216;-86
2023/07/03 10:39:57;;;;;;;7.00;5.85;;;22.10;47.60;;;;;;5025130;28;20179;-87
2023/07/03 10:42:36;;;;;;;8.30;6.15;;;22.30;49.10;;;;;;5015565;28;20190;-90
2023/07/03 10:45:08;;;;;;;7.20;6.57;;;22.30;48.10;;;;;;5020444;28;20175;-87
2023/07/03 10:47:37;;;;;;;7.70;6.85;;;22.70;48.30;;;;;;5020245;28;20294;-88
2023/07/03 10:50:03;;;;;;;7.65;7.03;;;23.20;46.50;;;;;;5020286;28;20204;-88
2023/07/03 10:52:29;;;;;;;8.93;8.23;;;23.90;45.90;;;;;;5019890;28;20655;-87
2023/07/03 10:55:21;;;;;;;8.35;7.75;;;23.90;43.70;;;;;;5018800;28;20178;-89
2023/07/03 10:57:57;;;;;;;8.02;7.43;;;23.80;43.90;;;;;;5008518;28;20218;-86
2023/07/03 11:00:33;;;;;;;7.97;7.38;;;24.10;43.30;;;;;;4998942;28;20163;-87
2023/07/03 11:03:10;;;;;;;8.15;7.63;;;24.10;44.20;;;;;;5000084;28;20595;-88
2023/07/03 11:05:43;;;;;;;8.85;8.00;;;24.30;42.40;;;;;;4999049;28;20170;-86
2023/07/03 11:08:12;;;;;;;9.68;9.00;;;25.10;42.10;;;;;;5005508;28;20201;-86
2023/07/03 11:11:24;;;;;;;9.68;8.98;;;24.80;40.00;;;;;;5019823;28;20174;-89
2023/07/03 11:14:02;;;;;;;8.05;7.55;;;24.20;41.20;;;;;;5011111;28;20339;-87
2023/07/03 11:16:52;;;;;;;8.45;7.97;;;24.00;44.90;;;;;;5019412;28;20248;-87
2023/07/03 11:19:34;;;;;;;8.82;8.32;;;24.50;40.90;;;;;;5018754;28;20184;-87
2023/07/03 11:22:08;;;;;;;8.55;8.13;;;25.10;39.60;;;;;;5019606;28;20244;-88
2023/07/03 11:24:53;;;;;;;9.02;8.52;;;25.20;40.20;;;;;;5011450;28;20239;-88
2023/07/03 11:27:41;;;;;;;10.32;9.77;;;24.60;39.90;;;;;;5010415;28;20208;-90
2023/07/03 11:30:08;;;;;;;8.75;8.15;;;24.30;41.40;;;;;;5018563;28;20178;-89
2023/07/03 11:32:35;;;;;;;8.10;7.60;;;24.30;41.20;;;;;;5018508;28;20182;-88
2023/07/03 11:35:02;;;;;;;8.00;7.50;;;23.90;42.20;;;;;;5019020;28;20551;-87
2023/07/03 11:37:48;;;;;;;7.68;7.05;;;23.80;43.30;;;;;;5017888;28;20210;-89
2023/07/03 11:40:25;;;;;;;7.78;7.38;;;23.70;43.00;;;;;;5005535;28;20786;-88
2023/07/03 11:43:22;;;;;;;7.45;6.95;;;23.60;42.70;;;;;;5003470;28;20182;-87
2023/07/03 11:45:56;;;;;;;7.45;6.85;;;23.60;42.80;;;;;;5003965;28;20210;-87
2023/07/03 11:48:40;;;;;;;6.82;6.53;;;23.70;42.70;;;;;;5005065;28;20204;-90
2023/07/03 11:51:14;;;;;;;7.43;6.72;;;23.80;43.60;;;;;;5006343;28;20201;-89
2023/07/03 11:53:46;;;;;;;7.25;6.57;;;24.10;43.60;;;;;;5003743;28;20173;-88
2023/07/03 11:56:30;;;;;;;7.60;7.05;;;23.80;43.50;;;;;;5009124;28;20208;-89
2023/07/03 11:59:12;;;;;;;7.57;7.07;;;24.00;42.90;;;;;;5003306;28;20224;-89
2023/07/03 12:01:38;;;;;;;8.55;7.80;;;23.90;43.70;;;;;;5003420;28;20691;-91
2023/07/03 12:04:06;;;;;;;9.13;8.60;;;24.20;43.50;;;;;;5019210;28;20178;-90
2023/07/03 12:06:40;;;;;;;8.52;8.02;;;24.30;42.00;;;;;;5020293;28;20182;-88
2023/07/03 12:09:28;;;;;;;9.10;8.48;;;24.30;43.00;;;;;;5020469;28;20678;-90
2023/07/03 12:11:59;;;;;;;10.60;10.10;;;24.80;43.00;;;;;;5002896;28;20178;-89
2023/07/03 12:14:58;;;;;;;9.45;9.05;;;25.40;39.50;;;;;;5002749;28;20190;-88
2023/07/03 12:17:28;;;;;;;11.15;10.55;;;25.80;39.00;;;;;;4978163;28;20308;-89
2023/07/03 12:20:20;;;;;;;11.07;10.57;;;26.00;38.20;;;;;;5018398;28;20194;-87
2023/07/03 12:22:49;;;;;;;11.32;10.73;;;25.90;38.80;;;;;;5017040;28;20564;-89
2023/07/03 12:25:19;;;;;;;10.75;10.25;;;25.80;39.10;;;;;;5010753;28;20245;-91
2023/07/03 12:27:46;;;;;;;11.32;10.68;;;25.70;38.30;;;;;;5022022;28;20205;-89
2023/07/03 12:30:23;;;;;;;10.80;10.20;;;25.70;38.50;;;;;;5023226;28;20177;-89
2023/07/03 12:32:51;;;;;;;10.10;9.60;;;25.30;39.60;;;;;;5003239;28;20166;-90
2023/07/03 12:35:22;;;;;;;9.50;8.88;;;24.90;40.60;;;;;;5004852;28;20183;-88
2023/07/03 12:37:56;;;;;;;9.40;8.90;;;24.60;41.80;;;;;;5008601;28;20707;-91
2023/07/03 12:40:25;;;;;;;9.90;9.20;;;24.50;42.00;;;;;;5016850;28;20181;-88
2023/07/03 12:42:54;;;;;;;8.68;8.20;;;24.50;42.50;;;;;;5012472;28;20173;-89
2023/07/03 12:45:30;;;;;;;8.40;8.00;;;24.50;42.90;;;;;;5014383;28;20636;-87